Time;durP1;ratioP1;P1;durP2;ratioP2;P2;SDS_P1;SDS_P2;PMS_P1;PMS_P2;Temp;Humidity;BMP_temperature;BMP_pressure;BME280_temperature;BME280_humidity;BME280_pressure;Samples;Min_cycle;Max_cycle;Signal;HPM_P1;HPM_P2
2023/07/05 00:00:46;;;;;;;20.27;19.13;;;23.10;99.60;;;;;;5044609;28;20524;-58
2023/07/05 00:03:13;;;;;;;20.73;19.73;;;23.10;99.60;;;;;;5040804;28;20883;-59
2023/07/05 00:05:40;;;;;;;19.40;18.60;;;23.10;99.90;;;;;;5051303;28;20517;-59
2023/07/05 00:08:07;;;;;;;21.20;20.30;;;23.10;99.90;;;;;;5052485;28;20566;-60
2023/07/05 00:10:34;;;;;;;21.13;19.93;;;23.10;99.90;;;;;;5052963;28;20888;-60
2023/07/05 00:13:03;;;;;;;20.53;19.63;;;23.10;99.90;;;;;;5052837;28;20501;-60
2023/07/05 00:15:31;;;;;;;20.40;19.60;;;23.10;99.90;;;;;;5052162;28;20535;-60
2023/07/05 00:17:57;;;;;;;20.53;19.53;;;23.10;99.90;;;;;;5052367;28;20559;-59
2023/07/05 00:20:25;;;;;;;21.77;20.77;;;23.10;99.90;;;;;;5052672;28;20451;-60
2023/07/05 00:22:52;;;;;;;21.10;20.27;;;23.00;99.90;;;;;;5052842;28;20878;-59
2023/07/05 00:25:19;;;;;;;19.90;19.10;;;23.00;99.90;;;;;;5040909;28;20483;-58
2023/07/05 00:27:46;;;;;;;20.33;19.43;;;23.10;99.90;;;;;;5032275;28;20580;-59
2023/07/05 00:30:16;;;;;;;19.17;18.47;;;23.10;99.90;;;;;;5032576;28;20528;-60
2023/07/05 00:32:43;;;;;;;24.03;23.03;;;23.10;99.90;;;;;;5032428;28;20936;-59
2023/07/05 00:35:10;;;;;;;21.30;20.50;;;23.00;99.90;;;;;;5032642;28;20532;-59
2023/07/05 00:37:36;;;;;;;19.90;19.10;;;23.00;99.90;;;;;;5032199;28;20879;-59
2023/07/05 00:40:04;;;;;;;19.33;18.63;;;23.00;99.90;;;;;;5032667;28;20531;-60
2023/07/05 00:42:30;;;;;;;20.03;19.23;;;23.10;99.90;;;;;;5033732;28;20532;-60
2023/07/05 00:45:34;;;;;;;20.50;19.10;;;23.00;99.90;;;;;;5052407;28;20494;-60
2023/07/05 00:48:03;;;;;;;20.50;19.70;;;23.00;99.90;;;;;;5052001;28;20480;-59
2023/07/05 00:50:38;;;;;;;21.00;20.00;;;23.00;99.90;;;;;;5052188;28;20448;-60
2023/07/05 00:53:06;;;;;;;20.20;19.30;;;22.90;99.90;;;;;;5046728;28;20544;-60
2023/07/05 00:55:33;;;;;;;21.40;20.50;;;22.90;99.90;;;;;;5032126;28;20539;-61
2023/07/05 00:58:01;;;;;;;20.80;19.90;;;22.90;99.90;;;;;;5031769;28;20552;-61
2023/07/05 01:00:28;;;;;;;19.47;18.53;;;23.00;99.90;;;;;;5032058;28;20473;-60
2023/07/05 01:02:59;;;;;;;19.57;18.70;;;23.00;99.90;;;;;;5036311;28;20535;-60
2023/07/05 01:05:27;;;;;;;19.27;18.40;;;23.00;99.90;;;;;;5051833;28;20527;-58
2023/07/05 01:07:54;;;;;;;19.70;18.90;;;22.90;99.90;;;;;;5051965;28;20575;-59
2023/07/05 01:10:24;;;;;;;20.80;19.90;;;22.90;99.90;;;;;;5051620;28;20536;-58
2023/07/05 01:13:00;;;;;;;20.80;19.80;;;22.90;99.90;;;;;;5047993;28;20532;-59
2023/07/05 01:15:32;;;;;;;20.30;19.43;;;22.90;99.90;;;;;;5012146;28;20524;-57
2023/07/05 01:18:09;;;;;;;19.40;18.60;;;22.90;99.90;;;;;;5011909;28;20541;-58
2023/07/05 01:20:44;;;;;;;20.53;19.60;;;22.90;99.90;;;;;;5012051;28;20536;-59
2023/07/05 01:23:50;;;;;;;20.13;19.23;;;22.90;99.90;;;;;;5024793;28;20448;-58
2023/07/05 01:26:46;;;;;;;20.70;19.80;;;22.90;99.90;;;;;;5051358;28;20959;-60
2023/07/05 01:30:01;;;;;;;21.87;20.70;;;22.90;99.90;;;;;;5051631;28;20931;-58
2023/07/05 01:32:35;;;;;;;19.90;19.10;;;22.90;99.90;;;;;;4989596;28;20530;-59
2023/07/05 01:35:06;;;;;;;19.47;18.70;;;22.80;99.90;;;;;;5007921;28;20889;-58
2023/07/05 01:37:36;;;;;;;19.30;18.50;;;22.80;99.90;;;;;;5011571;28;20989;-58
2023/07/05 01:40:14;;;;;;;20.37;19.47;;;22.90;99.90;;;;;;5011825;28;20537;-60
2023/07/05 01:42:46;;;;;;;19.67;18.87;;;22.80;99.90;;;;;;5015045;28;20537;-59
2023/07/05 01:45:13;;;;;;;19.77;18.77;;;22.80;99.90;;;;;;5051375;28;20881;-60
2023/07/05 01:47:47;;;;;;;18.20;17.50;;;22.80;99.90;;;;;;5050959;28;20575;-60
2023/07/05 01:50:25;;;;;;;19.20;18.50;;;22.90;99.90;;;;;;5051372;28;20526;-60
2023/07/05 01:53:01;;;;;;;19.73;19.03;;;22.80;99.90;;;;;;5046336;28;20539;-60
2023/07/05 01:55:34;;;;;;;18.90;18.10;;;22.80;99.90;;;;;;5036707;28;20445;-59
2023/07/05 01:58:08;;;;;;;19.87;19.17;;;22.80;99.90;;;;;;5036153;28;20499;-57
2023/07/05 02:00:37;;;;;;;19.40;18.60;;;22.80;99.90;;;;;;5051217;28;20566;-56
2023/07/05 02:03:10;;;;;;;18.17;17.47;;;22.80;99.90;;;;;;5051225;28;20472;-58
2023/07/05 02:05:37;;;;;;;20.30;19.40;;;22.80;99.90;;;;;;5051255;28;20488;-62
2023/07/05 02:08:05;;;;;;;19.60;18.70;;;22.80;99.90;;;;;;5045364;28;20567;-59
2023/07/05 02:10:32;;;;;;;19.37;18.67;;;22.80;99.90;;;;;;5041963;28;20539;-58
2023/07/05 02:13:01;;;;;;;19.30;18.57;;;22.80;99.90;;;;;;5031435;28;20880;-59
2023/07/05 02:15:28;;;;;;;19.40;18.70;;;22.70;99.90;;;;;;5031108;28;20480;-58
2023/07/05 02:17:55;;;;;;;18.47;17.77;;;22.70;99.90;;;;;;5030903;28;20497;-58
2023/07/05 02:20:23;;;;;;;18.97;18.20;;;22.70;99.90;;;;;;5047210;28;20528;-58
2023/07/05 02:22:50;;;;;;;18.33;17.63;;;22.70;99.90;;;;;;5051968;28;20993;-56
2023/07/05 02:25:17;;;;;;;17.90;17.30;;;22.70;99.90;;;;;;5054980;28;20837;-60
2023/07/05 02:27:44;;;;;;;18.80;18.10;;;22.60;99.90;;;;;;5054494;28;20562;-60
2023/07/05 02:30:13;;;;;;;18.60;18.00;;;22.70;99.90;;;;;;5039868;28;20540;-60
2023/07/05 02:32:40;;;;;;;18.00;17.40;;;22.70;99.90;;;;;;5034749;28;20453;-59
2023/07/05 02:35:08;;;;;;;17.83;17.23;;;22.60;99.90;;;;;;5034870;28;20532;-60
2023/07/05 02:37:37;;;;;;;18.90;18.20;;;22.60;99.90;;;;;;5034680;28;20972;-60
2023/07/05 02:40:04;;;;;;;17.80;17.20;;;22.60;99.90;;;;;;5034938;28;20528;-58
2023/07/05 02:42:31;;;;;;;19.13;18.37;;;22.60;99.90;;;;;;5034675;28;20528;-60
2023/07/05 02:44:58;;;;;;;18.53;17.83;;;22.60;99.90;;;;;;5034450;28;20456;-58
2023/07/05 02:47:25;;;;;;;18.40;17.80;;;22.60;99.90;;;;;;5034172;28;20568;-60
2023/07/05 02:49:52;;;;;;;18.00;17.40;;;22.60;99.90;;;;;;5037789;28;20886;-59
2023/07/05 02:52:19;;;;;;;19.00;18.10;;;22.50;99.90;;;;;;5034393;28;20524;-59
2023/07/05 02:54:47;;;;;;;18.50;17.80;;;22.50;99.90;;;;;;5034476;28;20473;-58
2023/07/05 02:57:14;;;;;;;18.20;17.50;;;22.50;99.90;;;;;;5034086;28;20499;-59
2023/07/05 02:59:41;;;;;;;18.27;17.67;;;22.50;99.90;;;;;;5043598;28;20480;-57
2023/07/05 03:02:09;;;;;;;18.00;17.30;;;22.50;99.90;;;;;;5054138;28;20487;-58
2023/07/05 03:04:35;;;;;;;18.67;17.87;;;22.50;99.90;;;;;;5054161;28;20501;-59
2023/07/05 03:07:02;;;;;;;18.50;17.90;;;22.40;99.90;;;;;;5053793;28;20998;-60
2023/07/05 03:09:29;;;;;;;19.83;19.13;;;22.40;99.90;;;;;;5053409;28;20916;-59
2023/07/05 03:11:57;;;;;;;20.20;19.40;;;22.40;99.90;;;;;;5054265;28;20999;-58
2023/07/05 03:14:24;;;;;;;19.57;18.37;;;22.40;99.90;;;;;;5054038;28;20479;-57
2023/07/05 03:16:51;;;;;;;18.60;17.90;;;22.30;99.90;;;;;;5053743;28;20552;-58
2023/07/05 03:19:18;;;;;;;20.00;19.20;;;22.30;99.90;;;;;;5053167;28;20530;-60
2023/07/05 03:21:45;;;;;;;19.10;18.40;;;22.30;99.90;;;;;;5053792;28;20882;-59
2023/07/05 03:24:12;;;;;;;18.90;18.20;;;22.30;99.90;;;;;;5053775;28;20914;-59
2023/07/05 03:26:39;;;;;;;19.03;18.33;;;22.20;99.90;;;;;;5053470;28;20903;-59
2023/07/05 03:29:07;;;;;;;18.17;17.27;;;22.20;99.90;;;;;;5053132;28;20582;-58
2023/07/05 03:31:34;;;;;;;18.33;17.73;;;22.00;99.90;;;;;;5053709;28;20590;-58
2023/07/05 03:34:01;;;;;;;18.10;17.50;;;22.00;99.90;;;;;;5053494;28;21006;-60
2023/07/05 03:36:27;;;;;;;18.40;17.70;;;21.90;99.90;;;;;;5053288;28;20551;-59
2023/07/05 03:38:54;;;;;;;19.17;18.50;;;21.90;99.90;;;;;;5037178;28;20530;-60
2023/07/05 03:41:23;;;;;;;19.60;18.87;;;21.80;99.90;;;;;;5033544;28;20539;-60
2023/07/05 03:43:54;;;;;;;20.50;19.70;;;21.70;99.90;;;;;;5033570;28;20628;-57
2023/07/05 03:46:22;;;;;;;18.60;17.90;;;21.60;99.90;;;;;;5033301;28;20622;-61
2023/07/05 03:48:49;;;;;;;18.30;17.70;;;21.60;99.90;;;;;;5035137;28;21091;-60
2023/07/05 03:51:19;;;;;;;19.17;18.47;;;21.60;99.90;;;;;;5043468;28;20857;-57
2023/07/05 03:53:50;;;;;;;19.60;18.80;;;21.60;99.90;;;;;;5053292;28;20528;-59
2023/07/05 03:56:17;;;;;;;18.73;18.10;;;21.50;99.90;;;;;;5053310;28;20492;-60
2023/07/05 03:58:44;;;;;;;18.93;18.23;;;21.50;99.90;;;;;;5038723;28;20456;-59
2023/07/05 04:01:14;;;;;;;20.97;20.17;;;21.40;99.90;;;;;;5033224;28;20497;-57
2023/07/05 04:03:43;;;;;;;19.90;19.20;;;21.40;99.90;;;;;;5033024;28;20449;-61
2023/07/05 04:06:10;;;;;;;20.33;19.57;;;21.40;99.90;;;;;;5032813;28;20636;-60
2023/07/05 04:08:37;;;;;;;19.30;18.70;;;21.40;99.90;;;;;;5039039;28;20564;-60
2023/07/05 04:11:04;;;;;;;20.20;19.40;;;21.40;99.90;;;;;;5040274;28;20484;-61
2023/07/05 04:13:31;;;;;;;20.20;19.50;;;21.40;99.90;;;;;;5052797;28;20531;-59
2023/07/05 04:15:59;;;;;;;22.37;21.43;;;21.40;99.70;;;;;;5052672;28;20475;-61
2023/07/05 04:18:27;;;;;;;20.60;19.70;;;21.30;98.80;;;;;;5041339;28;20449;-59
2023/07/05 04:20:55;;;;;;;20.30;19.40;;;21.30;98.40;;;;;;5032697;28;20545;-59
2023/07/05 04:23:22;;;;;;;20.17;19.47;;;21.20;98.00;;;;;;5032753;28;20472;-60
2023/07/05 04:25:49;;;;;;;20.10;19.30;;;21.20;96.90;;;;;;5032688;28;20527;-59
2023/07/05 04:28:16;;;;;;;21.47;20.57;;;21.20;97.30;;;;;;5032610;28;20571;-59
2023/07/05 04:30:43;;;;;;;20.80;19.80;;;21.20;96.80;;;;;;5032670;28;20528;-59
2023/07/05 04:33:09;;;;;;;20.77;19.97;;;21.20;96.80;;;;;;5032660;28;20531;-58
2023/07/05 04:35:36;;;;;;;20.23;19.30;;;21.30;96.60;;;;;;5032825;28;20872;-60
2023/07/05 04:38:06;;;;;;;19.87;19.17;;;21.30;96.30;;;;;;5031391;28;20895;-58
2023/07/05 04:40:33;;;;;;;21.23;20.23;;;21.40;96.10;;;;;;5031031;28;20526;-61
2023/07/05 04:43:00;;;;;;;20.40;19.70;;;21.40;95.80;;;;;;5032319;28;20445;-58
2023/07/05 04:45:27;;;;;;;21.03;20.23;;;21.50;95.40;;;;;;5031764;28;20485;-60
2023/07/05 04:47:54;;;;;;;20.60;19.60;;;21.50;95.00;;;;;;5031980;28;20548;-60
2023/07/05 04:50:20;;;;;;;20.43;19.63;;;21.50;94.70;;;;;;5032194;28;20502;-58
2023/07/05 04:52:47;;;;;;;21.80;20.90;;;21.50;94.50;;;;;;5032221;28;20477;-61
2023/07/05 04:55:16;;;;;;;20.50;19.80;;;21.60;94.40;;;;;;5032197;28;20528;-61
2023/07/05 04:57:43;;;;;;;21.17;20.30;;;21.60;94.10;;;;;;5031777;28;20544;-60
2023/07/05 05:00:11;;;;;;;21.50;20.60;;;21.60;94.00;;;;;;5032106;28;20456;-59
2023/07/05 05:02:39;;;;;;;19.43;18.73;;;21.60;93.90;;;;;;5032057;28;20460;-59
2023/07/05 05:05:07;;;;;;;21.57;20.67;;;21.60;93.70;;;;;;5031943;28;20991;-58
2023/07/05 05:07:34;;;;;;;21.10;20.30;;;21.60;93.60;;;;;;5031799;28;20562;-59
2023/07/05 05:10:02;;;;;;;21.10;20.23;;;21.60;93.50;;;;;;5031800;28;20584;-57
2023/07/05 05:12:31;;;;;;;20.17;19.37;;;21.70;93.40;;;;;;5031846;28;20477;-59
2023/07/05 05:14:57;;;;;;;19.73;18.83;;;21.70;93.30;;;;;;5031939;28;20882;-60
2023/07/05 05:17:25;;;;;;;19.87;19.07;;;21.70;93.20;;;;;;5031615;28;21274;-59
2023/07/05 05:19:52;;;;;;;19.90;19.20;;;21.70;93.20;;;;;;5031841;28;20453;-59
2023/07/05 05:22:19;;;;;;;20.20;19.40;;;21.70;93.00;;;;;;5031678;28;20533;-59
2023/07/05 05:24:46;;;;;;;20.00;19.20;;;21.70;92.90;;;;;;5031582;28;20449;-59
2023/07/05 05:27:13;;;;;;;19.60;18.90;;;21.70;92.80;;;;;;5031387;28;20548;-60
2023/07/05 05:29:41;;;;;;;20.40;19.50;;;21.70;92.70;;;;;;5031605;28;20540;-61
2023/07/05 05:32:10;;;;;;;19.73;19.03;;;21.70;92.70;;;;;;5031646;28;20859;-59
2023/07/05 05:34:37;;;;;;;20.30;19.50;;;21.70;92.60;;;;;;5031588;28;20536;-59
2023/07/05 05:37:04;;;;;;;21.13;20.27;;;21.70;92.50;;;;;;5031249;28;20465;-61
2023/07/05 05:39:31;;;;;;;20.27;19.37;;;21.60;92.20;;;;;;5031404;28;20472;-60
2023/07/05 05:41:58;;;;;;;20.60;19.80;;;21.60;92.10;;;;;;5031455;28;20484;-60
2023/07/05 05:44:25;;;;;;;20.80;20.00;;;21.70;92.00;;;;;;5031436;28;20532;-59
2023/07/05 05:46:53;;;;;;;20.77;19.97;;;21.60;91.80;;;;;;5031176;28;20543;-60
2023/07/05 05:49:20;;;;;;;21.07;20.17;;;21.70;91.80;;;;;;5031292;28;20568;-61
2023/07/05 05:51:47;;;;;;;20.97;20.07;;;21.70;91.60;;;;;;5031627;28;21036;-59
2023/07/05 05:54:14;;;;;;;20.17;19.37;;;21.70;91.50;;;;;;5031409;28;20445;-59
2023/07/05 05:56:41;;;;;;;20.97;20.17;;;21.70;91.30;;;;;;5031137;28;20548;-61
2023/07/05 05:59:08;;;;;;;21.27;20.40;;;21.60;90.70;;;;;;5034513;28;20472;-61
2023/07/05 06:01:35;;;;;;;21.80;21.00;;;21.60;90.50;;;;;;5035405;28;20877;-60
2023/07/05 06:04:03;;;;;;;21.97;21.07;;;21.60;90.40;;;;;;5035356;28;20495;-60
2023/07/05 06:06:30;;;;;;;23.30;22.40;;;21.60;90.10;;;;;;5034999;28;20504;-61
2023/07/05 06:08:57;;;;;;;23.13;22.00;;;21.70;90.00;;;;;;5035105;28;20571;-59
2023/07/05 06:11:24;;;;;;;22.53;21.63;;;21.60;89.60;;;;;;5035375;28;20480;-61
2023/07/05 06:13:51;;;;;;;23.70;22.60;;;21.60;88.90;;;;;;5035368;28;20477;-61
2023/07/05 06:16:18;;;;;;;22.20;21.30;;;21.60;88.80;;;;;;5034972;28;20548;-61
2023/07/05 06:18:44;;;;;;;22.93;21.93;;;21.60;88.70;;;;;;5035008;28;20469;-62
2023/07/05 06:21:13;;;;;;;22.60;21.60;;;21.60;88.70;;;;;;5035060;28;20479;-62
2023/07/05 06:23:40;;;;;;;22.30;21.40;;;21.60;88.50;;;;;;5035012;28;20533;-60
2023/07/05 06:26:06;;;;;;;23.00;22.00;;;21.60;88.30;;;;;;5034727;28;20951;-62
2023/07/05 06:28:33;;;;;;;22.67;21.77;;;21.60;87.40;;;;;;5034843;28;20918;-61
2023/07/05 06:31:05;;;;;;;23.43;22.53;;;21.60;87.30;;;;;;5035166;28;20528;-61
2023/07/05 06:33:32;;;;;;;22.53;21.63;;;21.60;86.90;;;;;;5034960;28;20445;-59
2023/07/05 06:36:00;;;;;;;22.67;21.67;;;21.60;87.50;;;;;;5034563;28;20433;-61
2023/07/05 06:38:29;;;;;;;22.80;21.90;;;21.60;86.60;;;;;;5034642;28;21015;-61
2023/07/05 06:40:56;;;;;;;22.60;21.77;;;21.60;86.60;;;;;;5034631;28;20484;-61
2023/07/05 06:43:23;;;;;;;22.80;21.90;;;21.60;86.20;;;;;;5034603;28;20445;-60
2023/07/05 06:45:51;;;;;;;23.80;22.83;;;21.60;85.80;;;;;;5034527;28;20525;-59
2023/07/05 06:48:19;;;;;;;23.50;22.40;;;21.60;85.60;;;;;;5034267;28;20492;-60
2023/07/05 06:50:51;;;;;;;24.43;23.43;;;21.60;85.10;;;;;;5034494;28;20525;-61
2023/07/05 06:53:18;;;;;;;23.53;22.47;;;21.60;84.70;;;;;;5034570;28;20448;-61
2023/07/05 06:55:48;;;;;;;22.30;21.40;;;21.60;84.30;;;;;;5034375;28;20631;-60
2023/07/05 06:58:15;;;;;;;23.23;22.30;;;21.60;84.00;;;;;;5034080;28;20464;-59
2023/07/05 07:00:42;;;;;;;22.83;22.03;;;21.60;83.90;;;;;;5034294;28;20938;-60
2023/07/05 07:03:09;;;;;;;22.80;21.90;;;21.60;83.90;;;;;;5034226;28;20449;-59
2023/07/05 07:05:36;;;;;;;22.67;21.67;;;21.60;83.90;;;;;;5034365;28;20529;-59
2023/07/05 07:08:03;;;;;;;21.33;20.53;;;21.60;83.30;;;;;;5034094;28;20584;-61
2023/07/05 07:10:30;;;;;;;23.10;22.20;;;21.60;82.80;;;;;;5033882;28;20568;-60
2023/07/05 07:12:58;;;;;;;22.47;21.57;;;21.60;82.50;;;;;;5034123;28;20532;-61
2023/07/05 07:15:25;;;;;;;23.47;22.57;;;21.60;82.70;;;;;;5034268;28;20524;-61
2023/07/05 07:17:52;;;;;;;21.97;21.07;;;21.60;82.50;;;;;;5033711;28;20504;-62
2023/07/05 07:20:20;;;;;;;22.17;21.27;;;21.60;82.20;;;;;;5033989;28;20624;-62
2023/07/05 07:22:47;;;;;;;23.20;22.23;;;21.50;82.10;;;;;;5033844;28;20441;-62
2023/07/05 07:25:13;;;;;;;22.50;21.60;;;21.60;82.20;;;;;;5033861;28;20488;-62
2023/07/05 07:27:40;;;;;;;22.70;21.87;;;21.50;82.00;;;;;;5033524;28;20548;-61
2023/07/05 07:30:10;;;;;;;21.53;20.70;;;21.60;81.80;;;;;;5033701;28;20567;-62
2023/07/05 07:32:37;;;;;;;22.00;21.10;;;21.50;81.50;;;;;;5033671;28;20820;-62
2023/07/05 07:35:04;;;;;;;22.13;21.43;;;21.60;81.90;;;;;;5033711;28;20480;-62
2023/07/05 07:37:32;;;;;;;23.10;22.10;;;21.60;81.60;;;;;;5033289;28;20552;-62
2023/07/05 07:39:59;;;;;;;23.80;22.80;;;21.60;81.60;;;;;;5033628;28;20475;-62
2023/07/05 07:42:26;;;;;;;22.23;21.13;;;21.60;81.60;;;;;;5033511;28;20469;-64
2023/07/05 07:44:55;;;;;;;22.53;21.60;;;21.50;81.30;;;;;;5033432;28;20532;-61
2023/07/05 07:47:23;;;;;;;22.23;21.40;;;21.50;81.30;;;;;;5033103;28;20470;-64
2023/07/05 07:49:51;;;;;;;24.20;23.00;;;21.50;80.90;;;;;;5033437;28;20599;-62
2023/07/05 07:52:18;;;;;;;21.63;20.83;;;21.60;81.20;;;;;;5033325;28;20536;-61
2023/07/05 07:54:45;;;;;;;22.43;21.43;;;21.60;81.20;;;;;;5033275;28;20535;-60
2023/07/05 07:57:12;;;;;;;22.10;21.27;;;21.60;81.20;;;;;;5033021;28;21018;-60
2023/07/05 07:59:41;;;;;;;21.80;21.00;;;21.50;80.90;;;;;;5033212;28;20507;-62
2023/07/05 08:02:12;;;;;;;23.17;22.27;;;21.50;81.30;;;;;;5033165;28;20945;-61
2023/07/05 08:04:44;;;;;;;22.13;21.03;;;21.50;80.20;;;;;;5033310;28;20472;-63
2023/07/05 08:07:11;;;;;;;22.10;21.30;;;21.50;80.10;;;;;;5032730;28;21027;-61
2023/07/05 08:09:38;;;;;;;22.40;21.50;;;21.50;79.80;;;;;;5032989;28;20516;-64
2023/07/05 08:12:06;;;;;;;21.30;20.50;;;21.50;79.90;;;;;;5033006;28;20532;-63
2023/07/05 08:14:33;;;;;;;21.73;20.93;;;21.50;79.60;;;;;;5033174;28;20441;-61
2023/07/05 08:17:00;;;;;;;21.13;20.33;;;21.50;79.50;;;;;;5032633;28;20911;-64
2023/07/05 08:19:27;;;;;;;21.00;20.30;;;21.50;79.40;;;;;;5032738;28;20991;-64
2023/07/05 08:21:55;;;;;;;21.87;21.07;;;21.50;79.20;;;;;;5031975;28;20528;-64
2023/07/05 08:24:22;;;;;;;22.40;21.47;;;21.50;79.20;;;;;;5032796;28;20472;-62
2023/07/05 08:26:49;;;;;;;22.50;21.67;;;21.40;78.70;;;;;;5032454;28;20501;-64
2023/07/05 08:29:16;;;;;;;22.13;21.33;;;21.40;78.40;;;;;;5032464;28;20516;-63
2023/07/05 08:31:43;;;;;;;22.20;21.30;;;21.40;78.20;;;;;;5032561;28;20538;-64
2023/07/05 08:34:12;;;;;;;22.77;21.77;;;21.40;77.80;;;;;;5032527;28;20531;-64
2023/07/05 08:36:41;;;;;;;22.03;21.23;;;21.40;77.40;;;;;;5032273;28;20556;-62
2023/07/05 08:39:13;;;;;;;22.03;21.23;;;21.40;77.40;;;;;;5032386;28;20445;-64
2023/07/05 08:42:00;;;;;;;22.27;21.50;;;21.40;77.60;;;;;;5032490;28;20976;-61
2023/07/05 08:44:40;;;;;;;20.93;20.13;;;21.40;77.40;;;;;;5029859;28;20453;-62
2023/07/05 08:47:18;;;;;;;21.43;20.63;;;21.40;77.30;;;;;;5032014;28;20496;-63
2023/07/05 08:49:49;;;;;;;21.03;20.30;;;21.40;76.10;;;;;;5032166;28;21070;-63
2023/07/05 08:52:22;;;;;;;22.40;21.50;;;21.40;76.10;;;;;;5032293;28;20535;-61
2023/07/05 08:54:54;;;;;;;22.80;21.67;;;21.40;76.40;;;;;;5032241;28;20532;-61
2023/07/05 08:57:29;;;;;;;22.50;21.67;;;21.40;76.30;;;;;;5031793;28;20465;-61
2023/07/05 09:00:00;;;;;;;21.20;20.40;;;21.40;77.10;;;;;;5032153;28;20476;-62
2023/07/05 09:02:28;;;;;;;22.10;21.30;;;21.40;76.20;;;;;;5031992;28;20501;-61
2023/07/05 09:04:58;;;;;;;22.43;21.53;;;21.40;76.30;;;;;;5031882;28;20540;-61
2023/07/05 09:07:38;;;;;;;23.00;22.00;;;21.40;76.30;;;;;;5031725;28;20480;-64
2023/07/05 09:10:13;;;;;;;20.93;20.13;;;21.40;76.10;;;;;;5031820;28;20923;-63
2023/07/05 09:12:48;;;;;;;21.10;20.20;;;21.40;76.10;;;;;;5032110;28;20535;-63
2023/07/05 09:15:20;;;;;;;21.73;20.60;;;21.40;75.90;;;;;;5031796;28;20532;-63
2023/07/05 09:17:53;;;;;;;22.20;20.87;;;21.40;75.80;;;;;;5031432;28;20472;-59
2023/07/05 09:20:49;;;;;;;20.93;20.13;;;21.40;75.60;;;;;;5031811;28;20472;-63
2023/07/05 09:23:20;;;;;;;21.60;20.70;;;21.40;75.60;;;;;;5030772;28;20540;-63
2023/07/05 09:25:52;;;;;;;20.80;20.10;;;21.40;75.40;;;;;;5031700;28;20484;-64
2023/07/05 09:28:24;;;;;;;21.73;20.70;;;21.40;75.00;;;;;;5031746;28;20544;-63
2023/07/05 09:30:52;;;;;;;21.70;20.80;;;21.40;74.90;;;;;;5031590;28;21074;-61
2023/07/05 09:33:23;;;;;;;22.27;21.13;;;21.40;74.50;;;;;;5031448;28;20449;-62
2023/07/05 09:35:51;;;;;;;21.60;20.50;;;21.40;74.70;;;;;;5031638;28;20445;-61
2023/07/05 09:38:23;;;;;;;21.50;20.50;;;21.40;74.70;;;;;;5031203;28;20488;-61
2023/07/05 09:40:58;;;;;;;21.93;20.63;;;21.40;74.80;;;;;;5031652;28;20527;-60
2023/07/05 09:43:29;;;;;;;22.63;21.63;;;21.40;74.10;;;;;;5031423;28;20502;-63
2023/07/05 09:45:56;;;;;;;21.93;20.97;;;21.40;73.80;;;;;;5031430;28;20860;-61
2023/07/05 09:48:23;;;;;;;21.50;20.70;;;21.40;73.60;;;;;;5031350;28;20460;-61
2023/07/05 09:50:52;;;;;;;22.37;21.47;;;21.30;73.40;;;;;;5031344;28;20591;-63
2023/07/05 09:53:41;;;;;;;21.90;21.00;;;21.40;73.30;;;;;;5031365;28;20484;-64
2023/07/05 09:56:12;;;;;;;22.07;20.97;;;21.40;73.20;;;;;;5031271;28;20481;-62
2023/07/05 09:58:40;;;;;;;22.47;21.47;;;21.40;73.40;;;;;;5031283;28;20485;-61
2023/07/05 10:01:13;;;;;;;22.90;22.03;;;21.40;73.50;;;;;;5031245;28;20472;-61
2023/07/05 10:03:49;;;;;;;23.53;22.43;;;21.40;73.50;;;;;;5031257;28;20484;-62
2023/07/05 10:06:19;;;;;;;23.27;22.17;;;21.40;73.50;;;;;;5030872;28;21047;-61
2023/07/05 10:08:51;;;;;;;22.47;21.37;;;21.40;73.40;;;;;;5031219;28;20441;-60
2023/07/05 10:11:24;;;;;;;22.87;21.70;;;21.40;73.20;;;;;;5031156;28;20567;-62
2023/07/05 10:14:13;;;;;;;21.90;20.90;;;21.40;72.60;;;;;;5031190;28;20864;-63
2023/07/05 10:16:52;;;;;;;21.63;20.73;;;21.40;72.20;;;;;;5031034;28;20465;-62
2023/07/05 10:19:25;;;;;;;22.90;21.90;;;21.50;72.40;;;;;;5031085;28;20445;-63
2023/07/05 10:21:54;;;;;;;22.10;21.20;;;21.40;71.90;;;;;;5031041;28;20532;-60
2023/07/05 10:24:21;;;;;;;22.10;21.10;;;21.50;72.00;;;;;;5030977;28;20449;-61
2023/07/05 10:27:02;;;;;;;22.87;21.50;;;21.50;71.80;;;;;;5030890;28;20461;-60
2023/07/05 10:29:30;;;;;;;22.23;20.87;;;21.50;71.40;;;;;;5030951;28;20477;-61
2023/07/05 10:32:00;;;;;;;22.73;21.70;;;21.50;70.80;;;;;;5031120;28;20589;-61
2023/07/05 10:34:27;;;;;;;23.13;22.17;;;21.50;70.40;;;;;;5031119;28;20477;-61
2023/07/05 10:36:55;;;;;;;22.63;21.63;;;21.50;70.20;;;;;;5030727;28;20469;-62
2023/07/05 10:39:24;;;;;;;22.63;21.30;;;21.50;70.10;;;;;;5030824;28;20454;-61
2023/07/05 10:41:58;;;;;;;22.73;21.17;;;21.50;69.90;;;;;;5030757;28;20536;-61
2023/07/05 10:44:32;;;;;;;22.13;21.30;;;21.50;69.60;;;;;;5032769;28;20445;-61
2023/07/05 10:47:00;;;;;;;23.17;21.77;;;21.50;69.30;;;;;;5034358;28;20543;-61
2023/07/05 10:49:30;;;;;;;22.90;21.63;;;21.50;69.00;;;;;;5034368;28;20445;-61
2023/07/05 10:52:00;;;;;;;21.73;20.73;;;21.50;68.50;;;;;;5034530;28;20808;-61
2023/07/05 10:54:34;;;;;;;22.33;21.23;;;21.50;67.90;;;;;;5034415;28;20871;-62
2023/07/05 10:57:10;;;;;;;22.80;21.47;;;21.50;67.70;;;;;;5034073;28;20526;-61
2023/07/05 10:59:40;;;;;;;22.00;20.83;;;21.50;67.80;;;;;;5034438;28;20483;-61
2023/07/05 11:02:38;;;;;;;21.93;20.87;;;21.50;67.30;;;;;;5034135;28;20484;-61
2023/07/05 11:05:17;;;;;;;21.83;20.90;;;21.50;67.20;;;;;;5034146;28;20495;-60
2023/07/05 11:07:46;;;;;;;22.50;21.60;;;21.50;66.80;;;;;;5034136;28;20476;-61
2023/07/05 11:10:15;;;;;;;21.80;20.83;;;21.50;66.30;;;;;;5034016;28;20488;-61
2023/07/05 11:12:43;;;;;;;22.63;21.63;;;21.50;66.10;;;;;;5034022;28;20484;-61
2023/07/05 11:15:14;;;;;;;21.30;20.50;;;21.50;66.20;;;;;;5034012;28;20477;-61
2023/07/05 11:17:42;;;;;;;21.53;20.57;;;21.50;66.10;;;;;;5033714;28;20504;-61
2023/07/05 11:20:42;;;;;;;21.53;20.60;;;21.50;66.20;;;;;;5033979;28;20531;-61
2023/07/05 11:23:10;;;;;;;22.20;21.30;;;21.60;65.80;;;;;;5033800;28;20477;-62
2023/07/05 11:25:58;;;;;;;23.00;21.97;;;21.50;65.00;;;;;;5033802;28;20484;-62
2023/07/05 11:28:34;;;;;;;21.60;20.70;;;21.50;64.80;;;;;;5033686;28;20441;-62
2023/07/05 11:31:01;;;;;;;22.70;21.70;;;21.50;64.40;;;;;;5033564;28;20568;-62
2023/07/05 11:33:28;;;;;;;21.77;20.73;;;21.50;64.30;;;;;;5033649;28;20448;-60
2023/07/05 11:35:57;;;;;;;21.43;20.63;;;21.50;64.20;;;;;;5033528;28;20477;-61
2023/07/05 11:39:06;;;;;;;23.00;21.90;;;21.60;64.30;;;;;;5033467;28;20479;-61
2023/07/05 11:41:37;;;;;;;22.50;21.40;;;21.60;64.00;;;;;;5033652;28;20528;-59
2023/07/05 11:44:23;;;;;;;21.97;20.80;;;21.50;63.90;;;;;;5033530;28;20449;-61
2023/07/05 11:46:50;;;;;;;23.60;21.97;;;21.60;64.20;;;;;;5033140;28;20548;-61
2023/07/05 11:49:30;;;;;;;21.37;20.50;;;21.60;63.90;;;;;;5033444;28;20872;-61
2023/07/05 11:52:14;;;;;;;21.40;20.30;;;21.60;63.30;;;;;;5033322;28;20564;-61
2023/07/05 11:54:51;;;;;;;22.13;21.23;;;21.60;62.60;;;;;;5033214;28;20471;-61
2023/07/05 11:57:17;;;;;;;22.70;21.70;;;21.60;62.70;;;;;;5033134;28;20511;-62
2023/07/05 11:59:53;;;;;;;23.27;22.00;;;21.60;62.70;;;;;;5033174;28;20532;-61
2023/07/05 12:02:36;;;;;;;22.33;21.53;;;21.60;62.50;;;;;;5033213;28;20864;-61
2023/07/05 12:05:10;;;;;;;22.90;21.60;;;21.60;62.00;;;;;;5033113;28;21011;-63
2023/07/05 12:07:40;;;;;;;22.73;21.70;;;21.60;61.30;;;;;;5032889;28;20562;-61
2023/07/05 12:10:09;;;;;;;22.33;21.43;;;21.60;61.00;;;;;;5032951;28;20548;-62
2023/07/05 12:12:40;;;;;;;22.40;21.60;;;21.60;60.80;;;;;;5032883;28;20580;-62
2023/07/05 12:15:11;;;;;;;22.50;21.70;;;21.60;60.90;;;;;;5033213;28;20437;-62
2023/07/05 12:17:38;;;;;;;22.23;21.33;;;21.60;61.60;;;;;;5032589;28;20551;-62
2023/07/05 12:20:11;;;;;;;21.53;20.60;;;21.60;62.20;;;;;;5032837;28;20485;-61
2023/07/05 12:22:38;;;;;;;22.07;21.23;;;21.60;62.80;;;;;;5032789;28;20445;-62
2023/07/05 12:25:06;;;;;;;24.30;22.40;;;21.60;63.20;;;;;;5032796;28;21023;-62
2023/07/05 12:27:34;;;;;;;21.60;20.47;;;21.60;63.50;;;;;;5032425;28;21038;-62
2023/07/05 12:30:03;;;;;;;21.20;20.30;;;21.60;63.90;;;;;;5032576;28;20536;-62
2023/07/05 12:32:32;;;;;;;21.90;21.00;;;21.70;64.20;;;;;;5032638;28;20544;-62
2023/07/05 12:35:16;;;;;;;22.10;21.10;;;21.70;64.40;;;;;;5032816;28;20441;-62
2023/07/05 12:37:44;;;;;;;22.73;21.43;;;21.70;64.50;;;;;;5032448;28;20505;-62
2023/07/05 12:40:20;;;;;;;21.97;21.00;;;21.70;64.70;;;;;;5032550;28;20488;-62
2023/07/05 12:42:49;;;;;;;22.47;21.27;;;21.70;64.80;;;;;;5032478;28;20452;-62